createdAt,value
2022-07-29T00:02:29.466Z,54.80
2022-07-29T00:04:57.079Z,54.80
2022-07-29T00:07:24.582Z,54.60
2022-07-29T00:09:52.742Z,54.70
2022-07-29T00:12:26.697Z,54.60
2022-07-29T00:14:57.906Z,54.70
2022-07-29T00:17:27.395Z,54.40
2022-07-29T00:19:56.158Z,54.20
2022-07-29T00:22:23.255Z,54.10
2022-07-29T00:24:50.707Z,54.00
2022-07-29T00:27:18.915Z,53.90
2022-07-29T00:29:46.206Z,54.10
2022-07-29T00:32:13.347Z,54.00
2022-07-29T00:34:59.318Z,53.90
2022-07-29T00:37:26.108Z,54.40
2022-07-29T00:39:52.957Z,54.80
2022-07-29T00:42:19.799Z,55.20
2022-07-29T00:44:46.659Z,55.40
2022-07-29T00:47:14.211Z,55.70
2022-07-29T00:49:43.125Z,56.10
2022-07-29T00:52:11.922Z,56.30
2022-07-29T00:54:44.268Z,56.20
2022-07-29T00:57:13.577Z,56.10
2022-07-29T00:59:40.514Z,55.80
2022-07-29T01:02:07.732Z,55.50
2022-07-29T01:04:34.802Z,55.30
2022-07-29T01:07:05.512Z,55.10
2022-07-29T01:09:45.338Z,54.90
2022-07-29T01:12:22.387Z,54.80
2022-07-29T01:14:51.414Z,54.40
2022-07-29T01:17:29.640Z,54.40
2022-07-29T01:20:15.896Z,54.00
2022-07-29T01:23:26.433Z,53.60
2022-07-29T01:26:49.109Z,53.80
2022-07-29T01:29:38.504Z,54.40
2022-07-29T01:32:20.287Z,55.00
2022-07-29T01:35:18.163Z,54.70
2022-07-29T01:38:14.357Z,54.30
2022-07-29T01:40:51.673Z,54.70
2022-07-29T01:43:32.184Z,55.20
2022-07-29T01:46:05.513Z,55.90
2022-07-29T01:48:48.134Z,56.50
2022-07-29T01:51:51.348Z,57.20
2022-07-29T01:54:43.760Z,57.50
2022-07-29T01:57:20.659Z,57.90
2022-07-29T01:59:50.679Z,58.30
2022-07-29T02:02:19.338Z,58.70
2022-07-29T02:04:50.762Z,58.70
2022-07-29T02:07:22.037Z,58.80
2022-07-29T02:09:51.746Z,58.90
2022-07-29T02:12:21.111Z,59.30
2022-07-29T02:14:55.366Z,59.70
2022-07-29T02:17:33.628Z,60.20
2022-07-29T02:20:05.255Z,60.20
2022-07-29T02:22:38.148Z,60.20
2022-07-29T02:25:14.219Z,60.30
2022-07-29T02:27:43.393Z,60.70
2022-07-29T02:30:13.263Z,61.00
2022-07-29T02:32:43.027Z,61.40
2022-07-29T02:35:13.576Z,61.50
2022-07-29T02:37:43.178Z,61.40
2022-07-29T02:40:14.092Z,61.30
2022-07-29T02:42:45.162Z,61.60
2022-07-29T02:45:12.263Z,61.70
2022-07-29T02:47:49.403Z,61.40
2022-07-29T02:50:30.692Z,61.20
2022-07-29T02:53:18.729Z,60.90
2022-07-29T02:55:57.123Z,60.60
2022-07-29T02:58:35.197Z,60.50
2022-07-29T03:01:19.426Z,60.60
2022-07-29T03:03:51.740Z,60.50
2022-07-29T03:06:37.381Z,60.60
2022-07-29T03:09:12.828Z,60.80
2022-07-29T03:11:49.828Z,61.10
2022-07-29T03:14:21.860Z,61.10
2022-07-29T03:16:51.135Z,61.30
2022-07-29T03:19:19.369Z,61.40
2022-07-29T03:21:46.163Z,61.80
2022-07-29T03:24:27.022Z,62.10
2022-07-29T03:26:55.166Z,62.60
2022-07-29T03:29:21.952Z,62.80
2022-07-29T03:31:51.750Z,63.00
2022-07-29T03:34:19.010Z,63.40
2022-07-29T03:36:46.101Z,63.30
2022-07-29T03:39:18.979Z,63.30
2022-07-29T03:41:49.175Z,63.30
2022-07-29T03:44:19.007Z,63.40
2022-07-29T03:46:48.209Z,63.80
2022-07-29T03:49:17.899Z,64.20
2022-07-29T03:51:45.241Z,64.50
2022-07-29T03:54:12.335Z,65.20
2022-07-29T03:56:47.307Z,65.60
2022-07-29T03:59:17.550Z,65.80
2022-07-29T04:01:45.975Z,66.00
2022-07-29T04:04:13.740Z,66.00
2022-07-29T04:06:43.094Z,65.70
2022-07-29T04:09:11.009Z,65.60
2022-07-29T04:12:02.407Z,66.00
2022-07-29T04:14:27.607Z,66.90
2022-07-29T04:16:54.360Z,67.30
2022-07-29T04:19:21.166Z,66.90
2022-07-29T04:21:47.980Z,67.00
2022-07-29T04:24:15.314Z,66.80
2022-07-29T04:26:42.390Z,66.70
2022-07-29T04:29:09.506Z,66.40
2022-07-29T04:31:36.384Z,66.70
2022-07-29T04:34:03.235Z,66.80
2022-07-29T04:36:30.298Z,66.70
2022-07-29T04:38:57.244Z,66.30
2022-07-29T04:41:32.701Z,66.20
2022-07-29T04:44:01.873Z,66.10
2022-07-29T04:46:29.206Z,66.60
2022-07-29T04:48:56.291Z,67.60
2022-07-29T04:51:23.565Z,68.60
2022-07-29T04:53:50.396Z,69.50
2022-07-29T04:56:17.258Z,70.00
2022-07-29T04:58:44.122Z,70.30
2022-07-29T05:01:11.081Z,70.40
2022-07-29T05:03:37.912Z,70.70
2022-07-29T05:06:04.683Z,70.80
2022-07-29T05:08:31.486Z,71.10
2022-07-29T05:10:58.294Z,71.50
2022-07-29T05:13:45.187Z,71.60
2022-07-29T05:16:12.461Z,71.90
2022-07-29T05:18:39.379Z,71.90
2022-07-29T05:21:06.230Z,71.90
2022-07-29T05:23:33.049Z,72.10
2022-07-29T05:25:59.848Z,72.20
2022-07-29T05:28:26.638Z,72.20
2022-07-29T05:30:53.475Z,73.10
2022-07-29T05:33:35.633Z,73.50
2022-07-29T05:36:07.492Z,73.70
2022-07-29T05:38:36.308Z,73.70
2022-07-29T05:41:03.358Z,73.30
2022-07-29T05:43:30.814Z,73.10
2022-07-29T05:45:57.944Z,71.80
2022-07-29T05:48:25.339Z,71.60
2022-07-29T05:50:52.279Z,71.00
2022-07-29T05:53:20.543Z,70.40
2022-07-29T05:55:49.379Z,70.00
2022-07-29T05:58:16.312Z,69.00
2022-07-29T06:00:43.122Z,67.00
2022-07-29T06:03:10.132Z,66.20
2022-07-29T06:05:36.957Z,66.20
2022-07-29T06:08:06.576Z,66.60
2022-07-29T06:10:33.846Z,65.80
2022-07-29T06:13:00.589Z,64.10
2022-07-29T06:15:27.587Z,62.50
2022-07-29T06:18:00.825Z,61.90
2022-07-29T06:20:33.165Z,61.40
2022-07-29T06:23:01.118Z,61.10
2022-07-29T06:25:31.809Z,60.80
2022-07-29T06:27:58.795Z,59.60
2022-07-29T06:30:25.844Z,59.00
2022-07-29T06:32:52.677Z,58.00
2022-07-29T06:35:41.162Z,57.80
2022-07-29T06:38:25.092Z,57.70
2022-07-29T06:41:03.043Z,57.10
2022-07-29T06:43:50.152Z,56.60
2022-07-29T06:46:20.523Z,57.00
2022-07-29T06:48:48.605Z,56.30
2022-07-29T06:51:15.842Z,56.30
2022-07-29T06:54:00.330Z,56.30
2022-07-29T06:56:39.492Z,56.50
2022-07-29T06:59:08.700Z,56.50
2022-07-29T07:01:38.014Z,55.90
2022-07-29T07:04:05.303Z,55.40
2022-07-29T07:06:32.220Z,55.60
2022-07-29T07:08:59.111Z,55.10
2022-07-29T07:11:25.877Z,54.80
2022-07-29T07:13:52.638Z,54.60
2022-07-29T07:16:19.592Z,54.30
2022-07-29T07:18:46.534Z,54.30
2022-07-29T07:21:19.144Z,53.40
2022-07-29T07:23:47.167Z,53.40
2022-07-29T07:26:13.992Z,53.40
2022-07-29T07:28:40.985Z,53.30
2022-07-29T07:31:07.927Z,53.10
2022-07-29T07:33:34.752Z,53.50
2022-07-29T07:36:01.574Z,53.60
2022-07-29T07:38:28.370Z,53.30
2022-07-29T07:40:55.214Z,53.60
2022-07-29T07:43:22.740Z,53.40
2022-07-29T07:45:49.569Z,53.30
2022-07-29T07:48:16.410Z,52.60
2022-07-29T07:50:44.566Z,52.40
2022-07-29T07:53:11.722Z,52.70
2022-07-29T07:58:30.097Z,52.20
2022-07-29T08:00:56.980Z,51.30
2022-07-29T08:03:23.835Z,50.50
2022-07-29T08:05:52.634Z,50.70
2022-07-29T08:08:19.594Z,50.80
2022-07-29T08:11:00.563Z,50.90
2022-07-29T08:13:31.593Z,51.70
2022-07-29T08:16:01.239Z,51.90
2022-07-29T08:18:32.105Z,51.60
2022-07-29T08:20:59.806Z,51.30
2022-07-29T08:23:32.835Z,51.20
2022-07-29T08:26:14.517Z,50.20
2022-07-29T08:28:47.695Z,50.50
2022-07-29T08:31:15.301Z,50.80
2022-07-29T08:33:43.255Z,50.90
2022-07-29T08:36:10.543Z,51.10
2022-07-29T08:38:37.392Z,50.90
2022-07-29T08:41:04.390Z,50.80
2022-07-29T08:43:31.357Z,49.70
2022-07-29T08:45:58.216Z,49.60
2022-07-29T08:48:25.716Z,50.30
2022-07-29T08:50:57.075Z,50.30
2022-07-29T08:53:27.909Z,50.50
2022-07-29T08:55:56.143Z,49.80
2022-07-29T08:58:25.454Z,50.20
2022-07-29T09:00:57.144Z,50.00
2022-07-29T09:03:31.180Z,49.10
2022-07-29T09:06:03.567Z,48.10
2022-07-29T09:08:33.281Z,47.30
2022-07-29T09:11:03.833Z,47.10
2022-07-29T09:13:31.050Z,47.20
2022-07-29T09:15:57.955Z,47.00
2022-07-29T09:18:46.306Z,46.90
2022-07-29T09:21:35.693Z,46.10
2022-07-29T09:24:15.361Z,46.10
2022-07-29T09:26:47.242Z,45.00
2022-07-29T09:29:24.293Z,45.40
2022-07-29T09:31:54.679Z,45.10
2022-07-29T09:34:26.533Z,44.10
2022-07-29T09:36:56.354Z,45.10
2022-07-29T09:39:46.514Z,44.50
2022-07-29T09:42:14.236Z,43.80
2022-07-29T09:44:49.714Z,43.50
2022-07-29T09:47:19.337Z,44.90
2022-07-29T09:50:01.382Z,45.80
2022-07-29T09:52:30.639Z,45.70
2022-07-29T09:55:18.242Z,45.40
2022-07-29T09:57:48.201Z,46.30
2022-07-29T10:00:19.607Z,46.90
2022-07-29T10:02:47.935Z,46.00
2022-07-29T10:05:24.982Z,46.50
2022-07-29T10:07:57.970Z,47.00
2022-07-29T10:10:36.546Z,47.40
2022-07-29T10:13:13.519Z,47.60
2022-07-29T10:15:46.658Z,47.70
2022-07-29T10:18:18.053Z,46.20
2022-07-29T10:20:45.138Z,46.20
2022-07-29T10:23:12.000Z,46.50
2022-07-29T10:25:38.787Z,45.90
2022-07-29T10:28:06.766Z,45.40
2022-07-29T10:30:34.051Z,45.90
2022-07-29T10:33:41.674Z,45.40
2022-07-29T10:36:49.182Z,44.70
2022-07-29T10:39:53.570Z,44.00
2022-07-29T10:42:29.426Z,44.60
2022-07-29T10:45:00.157Z,44.30
2022-07-29T10:47:27.990Z,43.10
2022-07-29T10:50:05.211Z,43.30
2022-07-29T10:52:50.534Z,44.50
2022-07-29T10:55:45.320Z,44.00
2022-07-29T10:58:21.603Z,43.80
2022-07-29T11:01:10.139Z,44.40
2022-07-29T11:03:52.451Z,43.70
2022-07-29T11:06:26.263Z,44.40
2022-07-29T11:09:34.896Z,44.70
2022-07-29T11:12:25.411Z,45.50
2022-07-29T11:14:53.402Z,46.30
2022-07-29T11:17:20.451Z,45.50
2022-07-29T11:19:51.949Z,46.50
2022-07-29T11:22:36.634Z,46.80
2022-07-29T11:25:42.570Z,47.10
2022-07-29T11:31:11.785Z,47.20
2022-07-29T11:36:27.987Z,47.40
2022-07-29T11:42:32.068Z,47.50
2022-07-29T11:45:42.976Z,48.10
2022-07-29T11:48:28.069Z,48.30
2022-07-29T11:50:58.313Z,48.50
2022-07-29T11:53:25.672Z,48.70
2022-07-29T11:55:58.135Z,48.80
2022-07-29T11:58:25.998Z,48.60
2022-07-29T12:00:55.581Z,49.10
2022-07-29T12:03:35.546Z,47.80
2022-07-29T12:06:14.925Z,46.60
2022-07-29T12:07:03.750Z,47.50
2022-07-29T12:08:44.288Z,46.10
2022-07-29T12:11:22.615Z,44.60
2022-07-29T12:13:52.602Z,43.60
2022-07-29T12:16:25.423Z,42.30
2022-07-29T12:19:02.173Z,42.50
2022-07-29T12:21:45.688Z,43.20
2022-07-29T12:24:17.027Z,44.50
2022-07-29T12:27:01.056Z,45.10
2022-07-29T12:29:33.640Z,45.40
2022-07-29T12:32:01.623Z,45.70
2022-07-29T12:34:30.445Z,45.40
2022-07-29T12:36:57.485Z,44.40
2022-07-29T12:39:27.255Z,43.90
2022-07-29T12:42:03.317Z,42.90
2022-07-29T12:44:52.418Z,40.70
2022-07-29T12:47:20.528Z,41.40
2022-07-29T12:49:48.763Z,41.70
2022-07-29T12:52:28.057Z,42.60
2022-07-29T12:54:54.834Z,43.30
2022-07-29T12:57:22.007Z,44.20
2022-07-29T13:00:11.548Z,44.30
2022-07-29T13:02:39.834Z,45.10
2022-07-29T13:05:09.240Z,45.50
2022-07-29T13:07:55.642Z,46.30
2022-07-29T13:10:25.009Z,46.90
2022-07-29T13:13:13.723Z,47.90
2022-07-29T13:15:44.509Z,48.50
2022-07-29T13:18:33.389Z,48.10
2022-07-29T13:21:14.101Z,47.90
2022-07-29T13:23:41.643Z,48.20
2022-07-29T13:26:12.669Z,48.40
2022-07-29T13:28:39.540Z,49.40
2022-07-29T13:31:06.551Z,50.30
2022-07-29T13:33:33.407Z,51.50
2022-07-29T13:36:00.150Z,53.90
2022-07-29T13:38:31.271Z,55.10
2022-07-29T13:40:58.841Z,56.50
2022-07-29T13:43:25.646Z,56.70
2022-07-29T13:45:52.928Z,57.80
2022-07-29T13:48:19.761Z,58.00
2022-07-29T13:50:47.517Z,58.70
2022-07-29T13:53:17.709Z,59.80
2022-07-29T13:55:45.112Z,61.40
2022-07-29T13:58:11.937Z,63.10
2022-07-29T14:00:38.753Z,63.10
2022-07-29T14:03:07.223Z,64.10
2022-07-29T14:05:34.191Z,64.90
2022-07-29T14:08:00.964Z,65.40
2022-07-29T14:10:27.970Z,66.70
2022-07-29T14:12:54.750Z,68.50
2022-07-29T14:15:21.752Z,69.80
2022-07-29T14:17:48.518Z,70.80
2022-07-29T14:20:16.524Z,71.40
2022-07-29T14:22:45.016Z,71.30
2022-07-29T14:25:15.028Z,70.80
2022-07-29T14:27:44.227Z,70.60
2022-07-29T14:30:11.894Z,69.90
2022-07-29T14:32:38.672Z,69.40
2022-07-29T14:35:06.837Z,68.40
2022-07-29T14:37:37.679Z,68.30
2022-07-29T14:40:08.309Z,67.70
2022-07-29T14:42:35.371Z,66.80
2022-07-29T14:45:02.203Z,66.10
2022-07-29T14:47:29.006Z,66.00
2022-07-29T14:49:55.784Z,64.80
2022-07-29T14:52:22.571Z,64.90
2022-07-29T14:54:49.495Z,64.50
2022-07-29T14:57:16.275Z,63.80
2022-07-29T14:59:43.373Z,63.80
2022-07-29T15:02:10.285Z,63.30
2022-07-29T15:04:37.065Z,62.90
2022-07-29T15:07:04.240Z,61.30
2022-07-29T15:09:31.321Z,57.40
2022-07-29T15:11:58.448Z,53.30
2022-07-29T15:14:25.338Z,51.20
2022-07-29T15:16:52.914Z,51.50
2022-07-29T15:19:20.029Z,52.80
2022-07-29T15:21:48.813Z,54.00
2022-07-29T15:24:20.040Z,55.40
2022-07-29T15:26:47.770Z,56.90
2022-07-29T15:29:15.730Z,58.20
2022-07-29T15:31:42.815Z,59.60
2022-07-29T15:34:09.934Z,61.10
2022-07-29T15:36:53.330Z,62.20
2022-07-29T15:39:21.865Z,62.50
2022-07-29T15:41:49.828Z,63.10
2022-07-29T15:44:16.629Z,63.90
2022-07-29T15:47:02.513Z,65.10
2022-07-29T15:49:47.497Z,66.80
2022-07-29T15:52:24.985Z,69.20
2022-07-29T15:54:52.396Z,71.30
2022-07-29T15:57:19.274Z,73.50
2022-07-29T15:59:46.049Z,75.50
2022-07-29T16:02:12.874Z,78.10
2022-07-29T16:04:39.813Z,80.90
2022-07-29T16:07:07.477Z,84.50
2022-07-29T16:09:34.439Z,88.60
2022-07-29T16:12:01.182Z,91.30
2022-07-29T16:14:29.099Z,93.00
2022-07-29T16:16:56.862Z,95.00
2022-07-29T16:19:24.111Z,96.80
2022-07-29T16:21:50.905Z,98.40
2022-07-29T16:24:18.138Z,99.90
2022-07-29T16:26:44.935Z,99.90
2022-07-29T16:29:11.750Z,99.90
2022-07-29T16:31:38.737Z,99.90
2022-07-29T16:34:05.721Z,99.90
2022-07-29T16:36:32.530Z,99.90
2022-07-29T16:38:59.643Z,99.90
2022-07-29T16:41:26.521Z,99.90
2022-07-29T16:43:53.286Z,99.90
2022-07-29T16:46:21.345Z,99.90
2022-07-29T16:48:48.695Z,99.90
2022-07-29T16:51:16.066Z,99.90
2022-07-29T16:53:42.866Z,99.90
2022-07-29T16:56:12.951Z,99.90
2022-07-29T16:58:43.814Z,99.90
2022-07-29T17:01:11.896Z,99.90
2022-07-29T17:04:00.433Z,99.90
2022-07-29T17:06:29.415Z,99.90
2022-07-29T17:09:14.769Z,99.90
2022-07-29T17:11:55.122Z,99.90
2022-07-29T17:14:25.185Z,99.90
2022-07-29T17:17:00.505Z,99.90
2022-07-29T17:19:35.300Z,99.90
2022-07-29T17:22:11.719Z,99.90
2022-07-29T17:24:43.173Z,99.90
2022-07-29T17:27:10.733Z,99.90
2022-07-29T17:29:39.369Z,99.90
2022-07-29T17:32:07.945Z,99.90
2022-07-29T17:34:41.117Z,99.90
2022-07-29T17:37:10.607Z,99.90
2022-07-29T17:39:41.814Z,99.90
2022-07-29T17:42:10.969Z,99.90
2022-07-29T17:44:39.062Z,99.90
2022-07-29T17:47:09.962Z,99.90
2022-07-29T17:49:43.715Z,99.90
2022-07-29T17:52:11.396Z,99.90
2022-07-29T17:54:38.163Z,99.90
2022-07-29T17:57:04.919Z,99.90
2022-07-29T17:59:31.709Z,99.90
2022-07-29T18:01:58.547Z,99.90
2022-07-29T18:04:25.383Z,99.90
2022-07-29T18:06:52.198Z,99.90
2022-07-29T18:09:18.965Z,99.90
2022-07-29T18:11:46.190Z,99.90
2022-07-29T18:14:13.449Z,99.90
2022-07-29T18:16:40.632Z,99.90
2022-07-29T18:19:07.585Z,99.90
2022-07-29T18:21:43.682Z,99.90
2022-07-29T18:24:23.051Z,99.90
2022-07-29T18:26:49.838Z,99.90
2022-07-29T18:29:16.631Z,99.90
2022-07-29T18:31:43.436Z,99.90
2022-07-29T18:34:10.268Z,99.90
2022-07-29T18:36:37.030Z,99.90
2022-07-29T18:39:03.886Z,99.90
2022-07-29T18:41:30.618Z,99.90
2022-07-29T18:43:57.362Z,99.90
2022-07-29T18:46:25.470Z,99.90
2022-07-29T18:48:52.606Z,99.90
2022-07-29T18:51:19.609Z,99.90
2022-07-29T18:53:46.730Z,99.90
2022-07-29T18:56:13.845Z,99.90
2022-07-29T18:58:40.587Z,99.90
2022-07-29T19:01:07.368Z,99.90
2022-07-29T19:03:34.487Z,99.90
2022-07-29T19:06:01.316Z,99.90
2022-07-29T19:08:28.120Z,99.90
2022-07-29T19:10:54.875Z,99.90
2022-07-29T19:13:21.659Z,99.90
2022-07-29T19:15:48.529Z,99.90
2022-07-29T19:18:15.324Z,99.90
2022-07-29T19:20:42.270Z,99.90
2022-07-29T19:23:09.275Z,99.90
2022-07-29T19:25:37.311Z,99.90
2022-07-29T19:28:20.324Z,99.90
2022-07-29T19:30:47.205Z,99.90
2022-07-29T19:33:17.297Z,99.90
2022-07-29T19:35:45.625Z,99.90
2022-07-29T19:38:13.115Z,99.90
2022-07-29T19:40:40.079Z,99.90
2022-07-29T19:43:50.965Z,99.90
2022-07-29T19:45:54.657Z,99.90
2022-07-29T19:48:21.486Z,99.90
2022-07-29T19:50:48.354Z,99.90
2022-07-29T19:53:17.548Z,99.90
2022-07-29T19:55:44.322Z,99.90
2022-07-29T19:58:11.206Z,99.90
2022-07-29T20:00:38.020Z,99.90
2022-07-29T20:03:07.049Z,99.90
2022-07-29T20:05:33.978Z,99.90
2022-07-29T20:08:00.850Z,99.90
2022-07-29T20:10:28.363Z,99.90
2022-07-29T20:12:55.462Z,99.90
2022-07-29T20:15:22.516Z,99.90
2022-07-29T20:17:51.814Z,99.90
2022-07-29T20:20:22.978Z,99.90
2022-07-29T20:22:49.785Z,99.90
2022-07-29T20:25:16.647Z,99.90
2022-07-29T20:27:43.446Z,99.90
2022-07-29T20:30:13.325Z,99.90
2022-07-29T20:32:41.442Z,99.90
2022-07-29T20:35:09.918Z,99.90
2022-07-29T20:37:52.425Z,99.90
2022-07-29T20:40:25.180Z,99.90
2022-07-29T20:42:52.679Z,99.90
2022-07-29T20:45:20.000Z,99.90
2022-07-29T20:47:46.949Z,99.90
2022-07-29T20:50:13.787Z,99.90
2022-07-29T20:52:41.306Z,99.90
2022-07-29T20:55:09.053Z,99.90
2022-07-29T20:57:39.215Z,99.90
2022-07-29T21:00:08.045Z,99.90
2022-07-29T21:02:36.586Z,99.90
2022-07-29T21:05:03.743Z,99.90
2022-07-29T21:07:30.592Z,99.90
2022-07-29T21:09:57.499Z,99.90
2022-07-29T21:12:24.307Z,99.90
2022-07-29T21:14:51.965Z,99.90
2022-07-29T21:17:21.359Z,99.90
2022-07-29T21:19:55.111Z,99.90
2022-07-29T21:22:22.175Z,99.90
2022-07-29T21:24:49.641Z,99.90
2022-07-29T21:27:35.621Z,99.90
2022-07-29T21:30:09.865Z,99.90
2022-07-29T21:32:36.796Z,99.90
2022-07-29T21:35:15.154Z,99.90
2022-07-29T21:37:51.296Z,99.90
2022-07-29T21:40:18.123Z,99.90
2022-07-29T21:42:44.951Z,99.90
2022-07-29T21:45:15.628Z,99.90
2022-07-29T21:47:42.386Z,99.90
2022-07-29T21:50:09.576Z,99.90
2022-07-29T21:52:36.589Z,99.90
2022-07-29T21:55:04.789Z,99.90
2022-07-29T21:57:31.756Z,99.90
2022-07-29T22:00:02.742Z,99.90
2022-07-29T22:02:30.007Z,99.90
2022-07-29T22:04:56.747Z,99.90
2022-07-29T22:07:23.502Z,99.90
2022-07-29T22:09:50.280Z,99.90
2022-07-29T22:12:17.053Z,99.90
2022-07-29T22:14:43.857Z,99.90
2022-07-29T22:17:10.904Z,99.90
2022-07-29T22:19:37.978Z,99.90
2022-07-29T22:22:04.746Z,99.90
2022-07-29T22:24:31.514Z,99.90
2022-07-29T22:26:58.701Z,99.90
2022-07-29T22:29:27.118Z,99.90
2022-07-29T22:31:53.999Z,99.90
2022-07-29T22:34:20.801Z,99.90
2022-07-29T22:36:47.638Z,99.90
2022-07-29T22:39:15.591Z,99.90
2022-07-29T22:41:43.035Z,99.90
2022-07-29T22:44:09.898Z,99.90
2022-07-29T22:46:36.839Z,99.90
2022-07-29T22:49:05.161Z,99.90
2022-07-29T22:51:32.987Z,99.90
2022-07-29T22:53:59.798Z,99.90
2022-07-29T22:56:26.612Z,99.90
2022-07-29T22:58:55.339Z,99.90
2022-07-29T23:01:37.921Z,99.90
2022-07-29T23:04:06.236Z,99.90
2022-07-29T23:06:33.984Z,99.90
2022-07-29T23:09:00.741Z,99.90
2022-07-29T23:11:27.676Z,99.90
2022-07-29T23:13:54.602Z,99.90
2022-07-29T23:16:26.255Z,99.90
2022-07-29T23:18:54.565Z,99.90
2022-07-29T23:21:21.582Z,99.90
2022-07-29T23:23:48.985Z,99.90
2022-07-29T23:26:16.852Z,99.90
2022-07-29T23:28:45.263Z,99.90
2022-07-29T23:31:13.429Z,99.90
2022-07-29T23:33:41.502Z,99.90
2022-07-29T23:36:08.547Z,99.90
2022-07-29T23:38:35.359Z,99.90
2022-07-29T23:41:03.540Z,99.90
2022-07-29T23:43:30.328Z,99.90
2022-07-29T23:45:58.072Z,99.90
2022-07-29T23:48:25.105Z,99.90
2022-07-29T23:50:51.858Z,99.90
2022-07-29T23:53:18.674Z,99.90
2022-07-29T23:55:45.451Z,99.90
2022-07-29T23:58:12.233Z,99.90
